createdAt,value
2022-12-28T00:01:19.613Z,96763.06
2022-12-28T00:03:48.209Z,96765.44
2022-12-28T00:06:16.519Z,96774.41
2022-12-28T00:08:44.215Z,96771.19
2022-12-28T00:11:20.561Z,96774.63
2022-12-28T00:13:57.579Z,96761.34
2022-12-28T00:16:28.171Z,96775.78
2022-12-28T00:18:56.264Z,96693.34
2022-12-28T00:21:24.051Z,96772.78
2022-12-28T00:23:52.527Z,96752.94
2022-12-28T00:26:20.958Z,96776.34
2022-12-28T00:28:48.871Z,96745.75
2022-12-28T00:31:18.123Z,96730.16
2022-12-28T00:33:47.012Z,96714.06
2022-12-28T00:36:15.496Z,96767.38
2022-12-28T00:38:43.987Z,96769.41
2022-12-28T00:41:12.292Z,96710.91
2022-12-28T00:43:43.238Z,96752.78
2022-12-28T00:46:11.592Z,96630.50
2022-12-28T00:48:40.608Z,96746.94
2022-12-28T00:51:12.006Z,96749.16
2022-12-28T00:53:39.856Z,96752.94
2022-12-28T00:56:09.176Z,96733.69
2022-12-28T00:58:37.145Z,96701.69
2022-12-28T01:01:05.831Z,96754.91
2022-12-28T01:03:33.663Z,96762.97
2022-12-28T01:06:06.180Z,96727.38
2022-12-28T01:08:34.041Z,96740.19
2022-12-28T01:11:01.724Z,96696.19
2022-12-28T01:13:29.421Z,96751.19
2022-12-28T01:15:57.097Z,96746.97
2022-12-28T01:18:25.004Z,96654.09
2022-12-28T01:20:52.692Z,96740.47
2022-12-28T01:23:21.692Z,96715.28
2022-12-28T01:25:49.524Z,96754.97
2022-12-28T01:28:17.377Z,96713.31
2022-12-28T01:30:45.141Z,96761.75
2022-12-28T01:33:12.779Z,96768.75
2022-12-28T01:35:40.441Z,96729.28
2022-12-28T01:38:08.116Z,96744.56
2022-12-28T01:40:39.104Z,96717.69
2022-12-28T01:43:13.236Z,96693.53
2022-12-28T01:45:42.254Z,96742.47
2022-12-28T01:48:19.347Z,96743.41
2022-12-28T01:50:47.170Z,96725.25
2022-12-28T01:53:15.012Z,96729.47
2022-12-28T01:55:44.539Z,96732.09
2022-12-28T01:58:16.263Z,96711.28
2022-12-28T02:00:43.938Z,96623.13
2022-12-28T02:03:14.966Z,96643.50
2022-12-28T02:05:46.602Z,96699.09
2022-12-28T02:08:19.771Z,96698.06
2022-12-28T02:10:48.846Z,96695.09
2022-12-28T02:13:18.282Z,96691.69
2022-12-28T02:15:47.179Z,96695.69
2022-12-28T02:18:16.939Z,96677.09
2022-12-28T02:21:11.281Z,96679.25
2022-12-28T02:23:53.266Z,96614.53
2022-12-28T02:26:39.584Z,96652.91
2022-12-28T02:29:35.784Z,96674.69
2022-12-28T02:32:17.899Z,96670.13
2022-12-28T02:34:50.883Z,96687.31
2022-12-28T02:37:23.929Z,96625.72
2022-12-28T02:39:57.286Z,96670.91
2022-12-28T02:42:27.300Z,96660.69
2022-12-28T02:45:14.181Z,96605.94
2022-12-28T02:48:02.515Z,96654.91
2022-12-28T02:50:45.251Z,96653.31
2022-12-28T02:53:32.704Z,96664.94
2022-12-28T02:56:16.529Z,96659.50
2022-12-28T02:58:58.998Z,96643.13
2022-12-28T03:01:43.129Z,96652.13
2022-12-28T03:04:19.820Z,96641.53
2022-12-28T03:07:17.123Z,96637.72
2022-12-28T03:09:51.978Z,96626.91
2022-12-28T03:12:26.595Z,96562.22
2022-12-28T03:15:05.664Z,96609.53
2022-12-28T03:17:55.152Z,96618.94
2022-12-28T03:20:45.732Z,96609.34
2022-12-28T03:23:35.328Z,96564.78
2022-12-28T03:26:25.799Z,96579.16
2022-12-28T03:29:13.652Z,96589.31
2022-12-28T03:31:44.338Z,96597.66
2022-12-28T03:34:16.637Z,96597.44
2022-12-28T03:36:56.128Z,96593.66
2022-12-28T03:39:35.560Z,96562.13
2022-12-28T03:42:30.433Z,96563.28
2022-12-28T03:45:03.289Z,96550.06
2022-12-28T03:47:34.639Z,96543.28
2022-12-28T03:50:04.247Z,96562.44
2022-12-28T03:52:33.427Z,96571.88
2022-12-28T03:55:06.964Z,96561.03
2022-12-28T03:57:34.805Z,96540.84
2022-12-28T04:00:06.180Z,96542.84
2022-12-28T04:02:43.691Z,96492.19
2022-12-28T04:05:13.510Z,96547.47
2022-12-28T04:07:42.186Z,96479.59
2022-12-28T04:10:10.601Z,96531.09
2022-12-28T04:12:38.444Z,96556.78
2022-12-28T04:15:22.239Z,96545.19
2022-12-28T04:17:49.983Z,96553.94
2022-12-28T04:20:19.650Z,96467.75
2022-12-28T04:22:47.524Z,96508.78
2022-12-28T04:25:15.452Z,96456.94
2022-12-28T04:27:44.325Z,96527.47
2022-12-28T04:30:31.131Z,96542.19
2022-12-28T04:32:58.843Z,96379.34
2022-12-28T04:35:28.025Z,96461.19
2022-12-28T04:37:57.880Z,96542.97
2022-12-28T04:40:25.597Z,96529.03
2022-12-28T04:42:53.279Z,96560.13
2022-12-28T04:45:22.406Z,96544.34
2022-12-28T04:47:50.256Z,96541.38
2022-12-28T04:50:18.069Z,96540.41
2022-12-28T04:52:47.119Z,96442.91
2022-12-28T04:55:32.470Z,96535.47
2022-12-28T04:58:01.994Z,96435.97
2022-12-28T05:00:29.704Z,96453.75
2022-12-28T05:02:59.618Z,96521.72
2022-12-28T05:05:27.359Z,96395.47
2022-12-28T05:07:56.443Z,96528.06
2022-12-28T05:10:24.351Z,96530.66
2022-12-28T05:12:52.049Z,96536.06
2022-12-28T05:15:19.780Z,96532.25
2022-12-28T05:17:47.462Z,96458.00
2022-12-28T05:20:16.054Z,96407.31
2022-12-28T05:22:43.708Z,96511.25
2022-12-28T05:25:12.772Z,96508.59
2022-12-28T05:27:40.466Z,96475.16
2022-12-28T05:30:09.567Z,96504.16
2022-12-28T05:32:37.264Z,96504.34
2022-12-28T05:35:05.307Z,96377.81
2022-12-28T05:37:32.981Z,96437.75
2022-12-28T05:40:01.655Z,96479.44
2022-12-28T05:42:30.747Z,96424.16
2022-12-28T05:44:58.440Z,96531.94
2022-12-28T05:47:26.111Z,96381.56
2022-12-28T05:49:53.849Z,96410.28
2022-12-28T05:52:21.536Z,96361.22
2022-12-28T05:54:49.269Z,96400.44
2022-12-28T05:57:17.007Z,96433.84
2022-12-28T05:59:46.015Z,96531.75
2022-12-28T06:02:13.824Z,96501.38
2022-12-28T06:04:41.516Z,96510.84
2022-12-28T06:07:09.126Z,96508.53
2022-12-28T06:09:36.844Z,96509.94
2022-12-28T06:12:06.903Z,96508.91
2022-12-28T06:14:34.715Z,96367.97
2022-12-28T06:17:03.816Z,96435.56
2022-12-28T06:19:31.521Z,96333.63
2022-12-28T06:21:59.261Z,96388.53
2022-12-28T06:24:26.984Z,96406.03
2022-12-28T06:26:54.653Z,96513.22
2022-12-28T06:29:22.350Z,96518.28
2022-12-28T06:31:51.327Z,96484.81
2022-12-28T06:34:20.458Z,96493.97
2022-12-28T06:36:52.512Z,96504.97
2022-12-28T06:39:20.197Z,96511.63
2022-12-28T06:41:47.815Z,96460.50
2022-12-28T06:44:15.548Z,96491.50
2022-12-28T06:46:43.315Z,96392.56
2022-12-28T06:49:11.040Z,96529.91
2022-12-28T06:51:41.837Z,96530.78
2022-12-28T06:54:10.279Z,96499.44
2022-12-28T06:56:38.309Z,96431.00
2022-12-28T06:59:06.613Z,96507.25
2022-12-28T07:01:36.570Z,96482.53
2022-12-28T07:04:06.282Z,96494.06
2022-12-28T07:06:37.666Z,96511.31
2022-12-28T07:09:08.735Z,96506.44
2022-12-28T07:11:37.196Z,96482.69
2022-12-28T07:14:05.166Z,96432.97
2022-12-28T07:19:01.295Z,96513.75
2022-12-28T07:21:31.812Z,96515.66
2022-12-28T07:24:00.093Z,96504.72
2022-12-28T07:26:31.329Z,96511.06
2022-12-28T07:29:00.577Z,96510.25
2022-12-28T07:31:30.681Z,96514.84
2022-12-28T07:34:00.234Z,96512.22
2022-12-28T07:36:29.730Z,96494.06
2022-12-28T07:38:58.677Z,96432.84
2022-12-28T07:41:29.743Z,96469.50
2022-12-28T07:43:59.553Z,96417.69
2022-12-28T07:46:29.023Z,96522.81
2022-12-28T07:48:57.924Z,96503.84
2022-12-28T07:51:28.068Z,96519.41
2022-12-28T07:53:58.030Z,96515.13
2022-12-28T07:56:28.053Z,96445.19
2022-12-28T07:58:58.952Z,96505.78
2022-12-28T08:01:28.499Z,96506.53
2022-12-28T08:03:58.379Z,96509.19
2022-12-28T08:06:27.235Z,96506.88
2022-12-28T08:08:56.852Z,96508.38
2022-12-28T08:11:26.225Z,96505.66
2022-12-28T08:13:55.672Z,96503.09
2022-12-28T08:16:26.864Z,96508.88
2022-12-28T08:18:55.673Z,96513.00
2022-12-28T08:21:25.283Z,96487.50
2022-12-28T08:23:53.607Z,96494.25
2022-12-28T08:26:23.252Z,96506.72
2022-12-28T08:28:53.298Z,96426.31
2022-12-28T08:31:23.088Z,96477.63
2022-12-28T08:33:53.721Z,96495.44
2022-12-28T08:36:21.777Z,96515.03
2022-12-28T08:38:50.410Z,96512.53
2022-12-28T08:41:20.647Z,96508.97
2022-12-28T08:43:48.807Z,96493.03
2022-12-28T08:46:19.256Z,96513.81
2022-12-28T08:48:49.407Z,96423.44
2022-12-28T08:51:20.891Z,96409.88
2022-12-28T08:53:49.061Z,96469.31
2022-12-28T08:56:20.127Z,96485.69
2022-12-28T08:58:49.083Z,96486.59
2022-12-28T09:01:18.633Z,96482.28
2022-12-28T09:03:48.731Z,96511.38
2022-12-28T09:06:20.354Z,96469.94
2022-12-28T09:09:04.925Z,96470.69
2022-12-28T09:11:33.525Z,96480.06
2022-12-28T09:14:01.995Z,96472.66
2022-12-28T09:16:29.906Z,96335.78
2022-12-28T09:18:59.935Z,96433.44
2022-12-28T09:21:31.130Z,96433.91
2022-12-28T09:23:59.206Z,96475.81
2022-12-28T09:26:28.561Z,96475.50
2022-12-28T09:28:58.061Z,96462.97
2022-12-28T09:31:28.003Z,96450.34
2022-12-28T09:36:51.288Z,96456.13
2022-12-28T09:39:22.650Z,96457.97
2022-12-28T09:41:53.714Z,96440.00
2022-12-28T09:44:48.642Z,96449.66
2022-12-28T09:47:24.153Z,96439.88
2022-12-28T09:50:03.476Z,96438.38
2022-12-28T09:52:35.011Z,96305.88
2022-12-28T09:55:08.149Z,96433.41
2022-12-28T09:57:39.035Z,96433.69
2022-12-28T10:00:15.715Z,96427.91
2022-12-28T10:02:48.266Z,96431.03
2022-12-28T10:05:16.540Z,96432.34
2022-12-28T10:07:45.708Z,96425.19
2022-12-28T10:10:17.192Z,96306.31
2022-12-28T10:12:46.203Z,96415.59
2022-12-28T10:15:14.481Z,96393.59
2022-12-28T10:17:42.615Z,96404.31
2022-12-28T10:20:16.995Z,96408.50
2022-12-28T10:22:50.349Z,96395.88
2022-12-28T10:25:20.912Z,96382.34
2022-12-28T10:27:48.768Z,96385.41
2022-12-28T10:30:19.711Z,96352.53
2022-12-28T10:32:56.723Z,96382.13
2022-12-28T10:35:30.998Z,96378.25
2022-12-28T10:38:04.766Z,96377.44
2022-12-28T10:40:34.798Z,96375.28
2022-12-28T10:43:10.174Z,96368.22
2022-12-28T10:45:41.907Z,96356.59
2022-12-28T10:48:15.271Z,96299.63
2022-12-28T10:50:51.580Z,96344.41
2022-12-28T10:53:26.692Z,96356.06
2022-12-28T10:56:22.435Z,96351.69
2022-12-28T10:58:51.460Z,96346.25
2022-12-28T11:01:24.946Z,96242.56
2022-12-28T11:04:02.254Z,96345.75
2022-12-28T11:06:32.516Z,96323.56
2022-12-28T11:09:14.288Z,96342.94
2022-12-28T11:11:42.779Z,96265.63
2022-12-28T11:14:17.218Z,96332.84
2022-12-28T11:16:45.322Z,96322.97
2022-12-28T11:19:13.776Z,96310.03
2022-12-28T11:21:42.828Z,96317.19
2022-12-28T11:24:16.119Z,96313.84
2022-12-28T11:26:45.725Z,96291.28
2022-12-28T11:29:15.007Z,96315.88
2022-12-28T11:31:48.328Z,96319.34
2022-12-28T11:34:20.505Z,96319.72
2022-12-28T11:36:49.556Z,96317.56
2022-12-28T11:39:46.270Z,96285.53
2022-12-28T11:42:54.037Z,96314.28
2022-12-28T11:45:51.375Z,96304.25
2022-12-28T11:48:47.484Z,96299.22
2022-12-28T11:51:17.925Z,96305.06
2022-12-28T11:53:55.285Z,96289.88
2022-12-28T11:56:26.632Z,96268.59
2022-12-28T11:59:12.633Z,96279.19
2022-12-28T12:01:54.118Z,96275.19
2022-12-28T12:04:37.932Z,96269.78
2022-12-28T12:07:31.122Z,96271.63
2022-12-28T12:10:22.230Z,96265.06
2022-12-28T12:12:53.760Z,96256.22
2022-12-28T12:15:25.554Z,96250.88
2022-12-28T12:18:00.583Z,96234.69
2022-12-28T12:20:45.465Z,96248.56
2022-12-28T12:23:22.980Z,96112.97
2022-12-28T12:25:54.288Z,96225.75
2022-12-28T12:28:34.036Z,96229.97
2022-12-28T12:31:04.022Z,96236.78
2022-12-28T12:33:35.966Z,96227.63
2022-12-28T12:36:17.665Z,96230.00
2022-12-28T12:39:04.423Z,96165.16
2022-12-28T12:41:39.870Z,96203.91
2022-12-28T12:44:20.083Z,96204.44
2022-12-28T12:47:21.050Z,96204.72
2022-12-28T12:50:12.927Z,96200.97
2022-12-28T12:52:43.573Z,96195.44
2022-12-28T12:55:21.865Z,96086.78
2022-12-28T12:57:58.657Z,96103.91
2022-12-28T13:00:38.942Z,96170.56
2022-12-28T13:03:24.142Z,96054.59
2022-12-28T13:05:54.686Z,96159.25
2022-12-28T13:08:27.719Z,96158.00
2022-12-28T13:10:56.558Z,96122.44
2022-12-28T13:13:32.046Z,96164.66
2022-12-28T13:16:04.069Z,96151.97
2022-12-28T13:18:48.101Z,96103.78
2022-12-28T13:21:22.040Z,96164.44
2022-12-28T13:23:51.759Z,96161.56
2022-12-28T13:26:25.085Z,96156.66
2022-12-28T13:28:57.863Z,96068.44
2022-12-28T13:31:33.707Z,96152.16
2022-12-28T13:34:03.351Z,96121.28
2022-12-28T13:36:31.331Z,96175.22
2022-12-28T13:39:13.912Z,96143.75
2022-12-28T13:41:49.186Z,96119.53
2022-12-28T13:44:33.320Z,96106.06
2022-12-28T13:47:07.950Z,96152.16
2022-12-28T13:49:41.278Z,96029.72
2022-12-28T13:52:19.677Z,96121.34
2022-12-28T13:54:53.622Z,96016.50
2022-12-28T14:00:12.506Z,96144.41
2022-12-28T14:02:42.554Z,96139.97
2022-12-28T14:05:18.453Z,96139.81
2022-12-28T14:07:47.402Z,96135.81
2022-12-28T14:10:15.657Z,95959.84
2022-12-28T14:12:44.894Z,96116.22
2022-12-28T14:15:13.373Z,96014.16
2022-12-28T14:17:43.464Z,96134.47
2022-12-28T14:20:11.862Z,96020.31
2022-12-28T14:22:41.346Z,96129.63
2022-12-28T14:25:11.207Z,96132.03
2022-12-28T14:27:42.325Z,96131.44
2022-12-28T14:30:23.733Z,96127.22
2022-12-28T14:32:53.415Z,96128.81
2022-12-28T14:35:23.507Z,96128.03
2022-12-28T14:37:54.317Z,96101.63
2022-12-28T14:40:31.505Z,96126.72
2022-12-28T14:43:03.956Z,96130.38
2022-12-28T14:46:06.788Z,96131.72
2022-12-28T14:48:36.923Z,96114.16
2022-12-28T14:51:06.563Z,96064.59
2022-12-28T14:53:34.551Z,96095.44
2022-12-28T14:56:07.006Z,96120.19
2022-12-28T14:58:47.848Z,96067.22
2022-12-28T15:01:18.659Z,96113.34
2022-12-28T15:03:52.780Z,96093.63
2022-12-28T15:06:21.126Z,96112.28
2022-12-28T15:08:50.545Z,95993.75
2022-12-28T15:11:18.968Z,96050.34
2022-12-28T15:13:46.665Z,96105.72
2022-12-28T15:16:17.719Z,96069.09
2022-12-28T15:18:46.134Z,96088.31
2022-12-28T15:21:18.012Z,96106.47
2022-12-28T15:23:49.140Z,96013.78
2022-12-28T15:26:16.927Z,96113.59
2022-12-28T15:28:44.546Z,95990.03
2022-12-28T15:31:14.776Z,96113.84
2022-12-28T15:33:42.499Z,96038.19
2022-12-28T15:36:17.413Z,96106.28
2022-12-28T15:38:47.911Z,96101.25
2022-12-28T15:41:34.031Z,96098.88
2022-12-28T15:44:01.798Z,96095.66
2022-12-28T15:46:29.634Z,96078.25
2022-12-28T15:48:57.314Z,96091.66
2022-12-28T15:51:25.055Z,95974.66
2022-12-28T15:53:54.082Z,96094.81
2022-12-28T15:56:23.366Z,96089.78
2022-12-28T15:58:54.235Z,96094.28
2022-12-28T16:01:22.579Z,96093.56
2022-12-28T16:03:50.625Z,96085.34
2022-12-28T16:06:18.524Z,96092.72
2022-12-28T16:08:46.353Z,96113.88
2022-12-28T16:11:17.244Z,96093.31
2022-12-28T16:13:45.268Z,96095.31
2022-12-28T16:16:14.376Z,96107.03
2022-12-28T16:18:42.080Z,96100.41
2022-12-28T16:21:11.955Z,96089.31
2022-12-28T16:23:41.018Z,95957.44
2022-12-28T16:26:09.803Z,95949.53
2022-12-28T16:28:39.556Z,96086.69
2022-12-28T16:31:07.678Z,96091.34
2022-12-28T16:33:35.906Z,96091.06
2022-12-28T16:36:03.553Z,96068.91
2022-12-28T16:38:31.284Z,96091.75
2022-12-28T16:40:58.930Z,96004.97
2022-12-28T16:43:26.569Z,95990.06
2022-12-28T16:45:55.579Z,96059.97
2022-12-28T16:48:23.223Z,96077.81
2022-12-28T16:50:58.512Z,96076.13
2022-12-28T16:53:26.257Z,96062.84
2022-12-28T16:55:53.959Z,96076.72
2022-12-28T16:58:22.063Z,95933.00
2022-12-28T17:00:49.725Z,95937.53
2022-12-28T17:03:18.771Z,96043.84
2022-12-28T17:05:49.724Z,96053.97
2022-12-28T17:08:17.951Z,95965.69
2022-12-28T17:10:45.688Z,96022.59
2022-12-28T17:13:13.364Z,96044.59
2022-12-28T17:15:42.162Z,96063.16
2022-12-28T17:18:10.545Z,96064.22
2022-12-28T17:20:40.505Z,96060.31
2022-12-28T17:23:08.985Z,96059.75
2022-12-28T17:25:37.289Z,96014.22
2022-12-28T17:28:05.447Z,96054.81
2022-12-28T17:30:33.226Z,96060.53
2022-12-28T17:33:01.821Z,96059.50
2022-12-28T17:35:29.537Z,96014.25
2022-12-28T17:37:58.512Z,96055.78
2022-12-28T17:40:26.131Z,96031.03
2022-12-28T17:42:53.832Z,96035.81
2022-12-28T17:45:21.520Z,95939.88
2022-12-28T17:47:49.120Z,96038.72
2022-12-28T17:50:18.054Z,96061.97
2022-12-28T17:52:45.980Z,95958.22
2022-12-28T17:55:15.035Z,96021.88
2022-12-28T17:57:42.726Z,96057.38
2022-12-28T18:00:12.641Z,95990.44
2022-12-28T18:02:40.433Z,96047.41
2022-12-28T18:05:09.488Z,96045.00
2022-12-28T18:07:37.236Z,96028.34
2022-12-28T18:10:05.413Z,96053.13
2022-12-28T18:12:34.457Z,96047.91
2022-12-28T18:15:02.116Z,96048.66
2022-12-28T18:17:29.776Z,96047.59
2022-12-28T18:19:57.428Z,96046.28
2022-12-28T18:22:25.121Z,96037.88
2022-12-28T18:24:53.509Z,96041.63
2022-12-28T18:27:21.243Z,96071.44
2022-12-28T18:29:52.027Z,96034.19
2022-12-28T18:32:19.837Z,96042.16
2022-12-28T18:34:47.595Z,96026.34
2022-12-28T18:37:15.356Z,96038.19
2022-12-28T18:39:42.973Z,96036.00
2022-12-28T18:42:10.544Z,96032.19
2022-12-28T18:44:38.218Z,96028.22
2022-12-28T18:47:07.340Z,96022.25
2022-12-28T18:49:34.969Z,95920.59
2022-12-28T18:52:03.123Z,96034.00
2022-12-28T18:54:30.737Z,95998.34
2022-12-28T18:56:58.605Z,96008.38
2022-12-28T18:59:26.317Z,96013.19
2022-12-28T19:02:13.163Z,96024.81
2022-12-28T19:04:43.424Z,96017.38
2022-12-28T19:07:11.162Z,96010.44
2022-12-28T19:09:39.043Z,96009.31
2022-12-28T19:12:06.844Z,96004.91
2022-12-28T19:14:35.551Z,96007.25
2022-12-28T19:17:03.167Z,96006.16
2022-12-28T19:19:30.816Z,95872.28
2022-12-28T19:21:59.768Z,95998.44
2022-12-28T19:24:27.508Z,95989.03
2022-12-28T19:26:55.217Z,95953.97
2022-12-28T19:29:23.753Z,95987.88
2022-12-28T19:31:51.837Z,95965.41
2022-12-28T19:34:19.603Z,95947.53
2022-12-28T19:36:47.216Z,95888.38
2022-12-28T19:39:16.505Z,95976.88
2022-12-28T19:41:44.290Z,95951.25
2022-12-28T19:44:12.069Z,95870.09
2022-12-28T19:46:40.314Z,95963.66
2022-12-28T19:49:08.191Z,95962.94
2022-12-28T19:51:35.990Z,95946.16
2022-12-28T19:54:04.297Z,95867.50
2022-12-28T19:56:33.634Z,95866.94
2022-12-28T19:59:06.519Z,95907.38
2022-12-28T20:01:35.862Z,95941.06
2022-12-28T20:04:12.405Z,95900.50
2022-12-28T20:06:42.325Z,95932.59
2022-12-28T20:09:10.084Z,95946.38
2022-12-28T20:11:40.503Z,95926.41
2022-12-28T20:14:08.202Z,95937.00
2022-12-28T20:16:36.204Z,95829.63
2022-12-28T20:19:06.745Z,95932.16
2022-12-28T20:21:37.234Z,95934.53
2022-12-28T20:24:06.056Z,95913.75
2022-12-28T20:26:34.050Z,95737.25
2022-12-28T20:29:05.424Z,95922.63
2022-12-28T20:31:33.188Z,95880.06
2022-12-28T20:34:01.615Z,95916.91
2022-12-28T20:36:33.846Z,95915.16
2022-12-28T20:39:01.780Z,95913.38
2022-12-28T20:41:48.319Z,95799.41
2022-12-28T20:44:22.084Z,95914.66
2022-12-28T20:46:52.200Z,95913.06
2022-12-28T20:49:19.950Z,95895.38
2022-12-28T20:51:47.805Z,95910.94
2022-12-28T20:54:15.529Z,95909.59
2022-12-28T20:56:45.029Z,95895.06
2022-12-28T20:59:17.111Z,95871.69
2022-12-28T21:01:44.846Z,95906.31
2022-12-28T21:04:12.713Z,95891.34
2022-12-28T21:06:40.390Z,95876.09
2022-12-28T21:09:08.279Z,95796.38
2022-12-28T21:11:35.940Z,95889.78
2022-12-28T21:14:03.635Z,95884.41
2022-12-28T21:16:32.791Z,95776.22
2022-12-28T21:19:05.454Z,95884.19
2022-12-28T21:21:33.098Z,95781.06
2022-12-28T21:24:02.656Z,95872.97
2022-12-28T21:26:31.368Z,95841.03
2022-12-28T21:29:00.260Z,95785.31
2022-12-28T21:31:27.927Z,95766.25
2022-12-28T21:33:58.117Z,95779.13
2022-12-28T21:36:25.951Z,95862.72
2022-12-28T21:38:54.748Z,95689.56
2022-12-28T21:41:37.642Z,95746.19
2022-12-28T21:44:07.777Z,95816.00
2022-12-28T21:46:35.582Z,95835.75
2022-12-28T21:49:05.279Z,95845.06
2022-12-28T21:51:35.148Z,95847.03
2022-12-28T21:54:04.942Z,95836.31
2022-12-28T21:56:33.079Z,95846.75
2022-12-28T21:59:01.647Z,95821.41
2022-12-28T22:01:47.346Z,95814.22
2022-12-28T22:04:35.768Z,95838.22
2022-12-28T22:07:04.490Z,95842.63
2022-12-28T22:09:51.517Z,95839.84
2022-12-28T22:12:37.922Z,95808.16
2022-12-28T22:15:26.887Z,95844.75
2022-12-28T22:17:56.372Z,95842.53
2022-12-28T22:20:27.053Z,95756.84
2022-12-28T22:22:56.512Z,95840.97
2022-12-28T22:25:24.943Z,95840.41
2022-12-28T22:27:52.735Z,95833.28
2022-12-28T22:30:20.440Z,95753.78
2022-12-28T22:32:48.141Z,95833.59
2022-12-28T22:35:16.071Z,95838.91
2022-12-28T22:37:45.169Z,95783.47
2022-12-28T22:40:13.421Z,95832.72
2022-12-28T22:42:42.627Z,95834.16
2022-12-28T22:45:11.417Z,95738.59
2022-12-28T22:47:39.127Z,95796.94
2022-12-28T22:50:08.738Z,95817.34
2022-12-28T22:52:36.386Z,95720.91
2022-12-28T22:55:06.069Z,95778.00
2022-12-28T22:57:33.865Z,95660.88
2022-12-28T23:00:01.658Z,95818.06
2022-12-28T23:02:30.374Z,95818.00
2022-12-28T23:04:58.245Z,95807.97
2022-12-28T23:07:25.899Z,95710.16
2022-12-28T23:09:53.516Z,95806.78
2022-12-28T23:12:22.516Z,95682.19
2022-12-28T23:15:07.666Z,95802.41
2022-12-28T23:17:35.328Z,95792.56
2022-12-28T23:20:20.602Z,95805.94
2022-12-28T23:23:05.942Z,95797.47
2022-12-28T23:25:51.365Z,95792.25
2022-12-28T23:28:20.451Z,95783.72
2022-12-28T23:30:51.210Z,95776.88
2022-12-28T23:33:19.862Z,95784.13
2022-12-28T23:35:47.494Z,95776.03
2022-12-28T23:38:15.159Z,95745.28
2022-12-28T23:40:43.309Z,95764.19
2022-12-28T23:43:10.942Z,95775.03
2022-12-28T23:45:39.914Z,95683.38
2022-12-28T23:48:07.616Z,95720.94
2022-12-28T23:50:35.613Z,95769.50
2022-12-28T23:53:03.248Z,95765.22
2022-12-28T23:55:30.828Z,95760.78
2022-12-28T23:57:58.465Z,95758.66
